Time;durP1;ratioP1;P1;durP2;ratioP2;P2;SDS_P1;SDS_P2;PMS_P1;PMS_P2;Temp;Humidity;BMP_temperature;BMP_pressure;BME280_temperature;BME280_humidity;BME280_pressure;Samples;Min_cycle;Max_cycle;Signal;HPM_P1;HPM_P2
2021/09/21 00:01:00;;;;;;;13.00;8.70;;;;;;;10.52;81.69;102581.41;10154913;28;20077;-71
2021/09/21 00:05:57;;;;;;;13.18;8.25;;;;;;;10.45;81.75;102596.47;10137450;28;20082;-70
2021/09/21 00:10:58;;;;;;;11.93;8.63;;;;;;;10.39;81.79;102597.53;10150725;28;20093;-70
2021/09/21 00:15:57;;;;;;;15.02;10.00;;;;;;;10.36;83.70;102603.56;10153697;28;20116;-70
2021/09/21 00:20:54;;;;;;;13.50;9.60;;;;;;;10.34;83.39;102609.28;10141501;28;20515;-71
2021/09/21 00:25:50;;;;;;;12.77;8.63;;;;;;;10.31;83.44;102607.09;10145682;28;20069;-70
2021/09/21 00:30:49;;;;;;;16.63;9.77;;;;;;;10.34;83.94;102611.19;10159196;28;20046;-70
2021/09/21 00:35:48;;;;;;;42.35;26.13;;;;;;;10.32;83.66;102606.81;10152906;28;20073;-70
2021/09/21 00:40:45;;;;;;;32.15;20.67;;;;;;;10.28;83.70;102603.00;10126728;28;20472;-71
2021/09/21 00:45:42;;;;;;;30.23;19.25;;;;;;;10.27;82.85;102600.47;10152787;28;20481;-71
2021/09/21 00:50:38;;;;;;;23.35;16.25;;;;;;;10.25;82.75;102598.00;10159714;28;20475;-71
2021/09/21 00:55:35;;;;;;;17.90;12.40;;;;;;;10.27;83.42;102595.81;10139542;28;20467;-71
2021/09/21 01:00:32;;;;;;;17.73;9.75;;;;;;;10.32;83.34;102595.88;10150738;28;20084;-69
2021/09/21 01:05:30;;;;;;;12.98;9.52;;;;;;;10.32;84.21;102593.13;10151079;28;20516;-70
2021/09/21 01:10:29;;;;;;;13.52;9.15;;;;;;;10.35;84.55;102594.53;10158026;28;20122;-70
2021/09/21 01:15:26;;;;;;;15.13;8.05;;;;;;;10.38;84.02;102584.97;10135145;28;20097;-71
2021/09/21 01:20:23;;;;;;;13.50;8.75;;;;;;;10.42;83.61;102592.34;10153597;28;20486;-70
2021/09/21 01:25:20;;;;;;;13.52;8.20;;;;;;;10.44;83.49;102583.84;10149078;28;20082;-71
2021/09/21 01:30:16;;;;;;;12.95;8.10;;;;;;;10.48;83.78;102584.97;10137527;28;20050;-71
2021/09/21 01:35:15;;;;;;;15.98;8.50;;;;;;;10.50;83.67;102578.13;10152687;28;20042;-70
2021/09/21 01:40:12;;;;;;;12.65;8.45;;;;;;;10.55;83.58;102587.44;10123376;28;20524;-71
2021/09/21 01:45:09;;;;;;;12.10;7.85;;;;;;;10.56;83.54;102578.97;10143774;28;20050;-71
2021/09/21 01:55:22;;;;;;;13.10;8.80;;;;;;;10.68;82.49;102565.03;10142817;28;20771;-71
2021/09/21 02:00:18;;;;;;;10.95;7.28;;;;;;;10.66;82.53;102559.81;10155829;28;20059;-71
2021/09/21 02:05:14;;;;;;;10.43;7.45;;;;;;;10.74;82.42;102553.81;10139858;28;20475;-69
2021/09/21 02:10:11;;;;;;;12.80;7.70;;;;;;;10.74;81.59;102567.50;10154028;28;20081;-70
2021/09/21 02:15:08;;;;;;;11.25;7.28;;;;;;;10.76;80.70;102560.91;10128553;28;20475;-71
2021/09/21 02:20:05;;;;;;;12.65;8.05;;;;;;;10.78;81.07;102545.84;10156490;28;20512;-70
2021/09/21 02:25:02;;;;;;;11.85;7.35;;;;;;;10.74;81.79;102556.56;10141023;28;20141;-71
2021/09/21 02:29:59;;;;;;;12.82;7.43;;;;;;;10.74;82.26;102545.59;10154953;28;20046;-69
2021/09/21 02:34:55;;;;;;;13.23;7.90;;;;;;;10.73;81.88;102554.88;10134431;28;20046;-71
2021/09/21 02:39:51;;;;;;;11.70;7.95;;;;;;;10.74;82.27;102561.19;10147352;28;20461;-70
2021/09/21 02:44:48;;;;;;;11.25;7.97;;;;;;;10.73;80.82;102565.03;10131830;28;20697;-70
2021/09/21 02:49:44;;;;;;;14.43;7.28;;;;;;;10.77;79.98;102587.16;10153446;28;20046;-71
2021/09/21 02:54:41;;;;;;;14.63;7.40;;;;;;;10.78;80.59;102588.81;10147639;28;20138;-71
2021/09/21 02:59:37;;;;;;;12.48;7.45;;;;;;;10.77;80.41;102603.59;10148041;28;20493;-70
2021/09/21 03:04:38;;;;;;;10.80;7.20;;;;;;;10.74;81.07;102614.00;10124768;28;20504;-69
2021/09/21 03:20:17;;;;;;;10.80;7.25;;;;;;;10.88;80.60;102611.53;10071802;28;20081;-70
2021/09/21 03:25:14;;;;;;;11.82;8.00;;;;;;;10.90;79.88;102603.03;10128361;28;20495;-72
2021/09/21 03:30:11;;;;;;;14.45;9.60;;;;;;;10.89;78.60;102595.94;10143865;28;20074;-70
2021/09/21 03:35:09;;;;;;;14.00;8.52;;;;;;;10.82;78.95;102611.81;10146097;28;20054;-72
2021/09/21 03:40:08;;;;;;;11.30;8.48;;;;;;;10.86;78.89;102608.25;10154149;28;20081;-72
2021/09/21 03:45:05;;;;;;;11.07;7.72;;;;;;;10.83;79.11;102599.75;10141558;28;20050;-72
2021/09/21 03:50:03;;;;;;;12.95;7.97;;;;;;;10.86;79.46;102613.75;10154257;28;20096;-71
2021/09/21 03:54:59;;;;;;;12.48;7.75;;;;;;;10.83;79.19;102605.25;10136010;28;20507;-71
2021/09/21 03:59:56;;;;;;;12.02;7.53;;;;;;;10.83;79.89;102607.97;10153541;28;20504;-72
2021/09/21 04:04:52;;;;;;;9.45;6.88;;;;;;;10.82;79.10;102603.59;10136608;28;20094;-70
2021/09/21 04:09:49;;;;;;;11.60;7.88;;;;;;;10.82;78.96;102611.81;10146181;28;20050;-71
2021/09/21 04:14:45;;;;;;;11.77;7.25;;;;;;;10.85;78.95;102612.06;10131534;28;20619;-72
2021/09/21 04:19:42;;;;;;;12.02;7.85;;;;;;;10.90;78.45;102603.03;10147945;28;20068;-71
2021/09/21 04:24:38;;;;;;;13.57;8.07;;;;;;;10.90;78.58;102598.38;10154697;28;20050;-71
2021/09/21 04:29:35;;;;;;;11.40;7.82;;;;;;;10.95;78.89;102598.41;10137706;28;20101;-71
2021/09/21 04:34:32;;;;;;;12.43;7.90;;;;;;;10.95;79.33;102595.66;10153963;28;20046;-72
2021/09/21 04:39:28;;;;;;;12.73;8.23;;;;;;;10.95;78.87;102600.31;10158623;28;20516;-71
2021/09/21 04:44:25;;;;;;;12.32;7.75;;;;;;;10.97;80.02;102600.03;10126409;28;20050;-71
2021/09/21 04:49:21;;;;;;;12.10;7.68;;;;;;;11.02;80.47;102600.84;10158343;28;20042;-72
2021/09/21 04:54:18;;;;;;;13.30;8.07;;;;;;;11.06;80.23;102601.94;10140984;28;20078;-72
2021/09/21 04:59:14;;;;;;;12.57;8.35;;;;;;;11.12;80.58;102609.06;10157974;28;20228;-72
2021/09/21 05:04:11;;;;;;;13.50;7.90;;;;;;;11.09;79.87;102617.84;10133083;28;20060;-72
2021/09/21 05:09:12;;;;;;;12.65;8.32;;;;;;;11.10;80.29;102624.94;10157670;28;20467;-71
2021/09/21 05:14:08;;;;;;;10.88;7.15;;;;;;;11.14;79.83;102631.50;10142312;28;20135;-71
2021/09/21 05:19:07;;;;;;;11.57;7.82;;;;;;;11.19;79.54;102638.09;10151279;28;20042;-71
2021/09/21 05:24:04;;;;;;;12.43;6.88;;;;;;;11.22;79.43;102619.19;10148081;28;20066;-71
2021/09/21 05:29:01;;;;;;;12.48;7.60;;;;;;;11.30;79.61;102620.53;10144310;28;20772;-71
2021/09/21 05:33:58;;;;;;;11.85;7.70;;;;;;;11.32;79.31;102616.41;10119214;28;20491;-71
2021/09/21 05:38:55;;;;;;;13.80;7.00;;;;;;;11.32;77.51;102627.38;10152453;28;20459;-71
2021/09/21 05:43:51;;;;;;;12.55;7.00;;;;;;;11.39;77.24;102632.56;10150407;28;20057;-71
2021/09/21 05:48:49;;;;;;;11.43;6.30;;;;;;;11.48;78.75;102641.03;10156942;28;20066;-72
2021/09/21 05:53:46;;;;;;;12.20;7.15;;;;;;;11.56;78.69;102643.22;10133042;28;20043;-71
2021/09/21 05:58:43;;;;;;;10.95;7.35;;;;;;;11.62;77.84;102635.81;10154913;28;20046;-71
2021/09/21 06:03:39;;;;;;;10.55;7.20;;;;;;;11.69;78.09;102639.06;10142199;28;20510;-71
2021/09/21 06:08:36;;;;;;;16.25;7.45;;;;;;;11.71;79.42;102639.63;10143457;28;20131;-70
2021/09/21 06:13:33;;;;;;;13.45;6.85;;;;;;;11.71;78.78;102645.09;10138168;28;20500;-70
2021/09/21 06:18:29;;;;;;;12.45;7.03;;;;;;;11.75;74.96;102662.63;10135356;28;20520;-69
2021/09/21 06:23:25;;;;;;;13.35;6.95;;;;;;;11.76;73.45;102661.53;10136252;28;20054;-71
2021/09/21 06:28:22;;;;;;;13.65;7.20;;;;;;;11.78;72.74;102656.59;10131595;28;20109;-70
2021/09/21 06:33:19;;;;;;;11.90;6.63;;;;;;;11.80;71.65;102660.69;10135058;28;20050;-71
2021/09/21 06:38:16;;;;;;;10.55;6.07;;;;;;;11.87;70.52;102668.66;10146662;28;20500;-70
2021/09/21 06:43:12;;;;;;;8.98;5.68;;;;;;;11.91;70.09;102669.75;10153691;28;20093;-69
2021/09/21 06:48:09;;;;;;;11.13;6.40;;;;;;;11.93;70.02;102674.97;10146237;28;20078;-71
2021/09/21 06:53:05;;;;;;;13.13;5.97;;;;;;;11.99;69.37;102685.59;10154690;28;20504;-72
2021/09/21 06:58:02;;;;;;;11.75;5.75;;;;;;;12.02;68.97;102688.88;10147513;28;20568;-71
2021/09/21 07:02:59;;;;;;;10.85;6.10;;;;;;;11.92;70.40;102690.56;10145294;28;20050;-70
2021/09/21 07:07:56;;;;;;;10.30;6.03;;;;;;;11.90;72.42;102700.97;10146529;28;20093;-71
2021/09/21 07:12:53;;;;;;;11.48;5.57;;;;;;;11.82;72.75;102707.00;10143908;28;20240;-71
2021/09/21 07:17:51;;;;;;;9.93;5.00;;;;;;;11.73;72.53;102698.53;10147054;28;20474;-70
2021/09/21 07:22:48;;;;;;;17.30;5.82;;;;;;;11.73;74.05;102694.97;10134973;28;20050;-71
2021/09/21 07:27:46;;;;;;;9.50;5.63;;;;;;;11.85;74.84;102705.63;10144498;28;20042;-71
2021/09/21 07:32:42;;;;;;;10.38;5.25;;;;;;;11.90;74.89;102695.50;10122878;28;20070;-70
2021/09/21 07:37:39;;;;;;;11.00;5.68;;;;;;;11.92;75.81;102704.25;10147416;28;20488;-71
2021/09/21 07:42:36;;;;;;;10.50;6.35;;;;;;;12.02;75.17;102699.84;10128856;28;20549;-70
2021/09/21 07:47:32;;;;;;;10.48;6.15;;;;;;;12.04;74.94;102719.59;10153721;28;20097;-70
2021/09/21 07:52:29;;;;;;;10.25;6.07;;;;;;;12.06;75.46;102706.44;10162113;28;20070;-70
2021/09/21 07:57:27;;;;;;;10.80;6.95;;;;;;;12.06;75.47;102720.13;10148834;28;20046;-70
2021/09/21 08:02:23;;;;;;;11.90;6.72;;;;;;;12.05;74.71;102726.72;10161184;28;20467;-71
2021/09/21 08:07:21;;;;;;;12.32;7.30;;;;;;;12.08;73.80;102723.44;10153387;28;20134;-70
2021/09/21 08:12:17;;;;;;;10.77;7.35;;;;;;;12.05;74.04;102726.72;10160942;28;20046;-70
2021/09/21 08:17:15;;;;;;;11.55;7.47;;;;;;;12.15;73.44;102715.72;10151603;28;20050;-71
2021/09/21 08:22:11;;;;;;;12.07;8.00;;;;;;;12.25;73.90;102715.66;10147384;28;20101;-71
2021/09/21 08:27:08;;;;;;;14.48;8.02;;;;;;;12.30;74.39;102718.41;10146055;28;20054;-71
2021/09/21 08:32:05;;;;;;;15.80;8.45;;;;;;;12.33;73.15;102717.84;10130379;28;20043;-71
2021/09/21 08:37:02;;;;;;;12.50;7.28;;;;;;;12.25;72.80;102710.19;10147570;28;20512;-70
2021/09/21 08:41:58;;;;;;;18.27;7.60;;;;;;;12.36;72.60;102706.31;10156518;28;20046;-71
2021/09/21 08:46:55;;;;;;;10.25;6.55;;;;;;;12.44;72.55;102696.69;10147749;28;20639;-71
2021/09/21 08:51:51;;;;;;;12.02;7.53;;;;;;;12.43;71.83;102701.31;10150547;28;20504;-71
2021/09/21 08:56:48;;;;;;;11.60;7.68;;;;;;;12.49;72.08;102704.06;10144169;28;20532;-71
2021/09/21 09:01:49;;;;;;;14.13;7.10;;;;;;;12.56;72.02;102699.91;10159084;28;20043;-71
2021/09/21 09:06:56;;;;;;;12.02;7.53;;;;;;;12.66;71.37;102703.69;10155833;28;20050;-71
2021/09/21 09:11:57;;;;;;;13.73;6.13;;;;;;;12.69;68.57;102714.09;10159029;28;20508;-71
2021/09/21 09:16:56;;;;;;;11.18;6.10;;;;;;;12.64;68.24;102712.19;10146539;28;20559;-71
2021/09/21 09:21:52;;;;;;;11.30;7.53;;;;;;;12.66;70.50;102704.50;10140397;28;20130;-71
2021/09/21 09:26:49;;;;;;;12.80;7.63;;;;;;;12.67;71.86;102706.16;10144690;28;20097;-71
2021/09/21 09:31:46;;;;;;;15.20;7.05;;;;;;;12.64;70.53;102702.03;10132974;28;20105;-71
2021/09/21 09:36:49;;;;;;;7.90;5.65;;;;;;;12.58;68.72;102694.94;10141957;28;20046;-71
2021/09/21 09:41:48;;;;;;;9.35;5.95;;;;;;;12.58;69.65;102697.69;10155160;28;20077;-70
2021/09/21 09:46:54;;;;;;;9.88;5.28;;;;;;;12.70;69.74;102691.88;10157235;28;20504;-71
2021/09/21 09:51:52;;;;;;;12.95;5.63;;;;;;;12.76;67.79;102693.44;10149112;28;20073;-70
2021/09/21 09:56:49;;;;;;;9.23;5.57;;;;;;;12.89;68.92;102688.44;10149048;28;20125;-71
2021/09/21 10:01:46;;;;;;;9.07;5.57;;;;;;;13.04;68.39;102683.66;10147653;28;20124;-70
2021/09/21 10:06:44;;;;;;;9.07;4.95;;;;;;;13.13;67.14;102681.09;10144249;28;20053;-70
2021/09/21 10:11:47;;;;;;;10.50;5.80;;;;;;;13.13;66.60;102694.84;10157713;28;20062;-71
2021/09/21 10:16:54;;;;;;;9.93;6.10;;;;;;;13.21;67.60;102680.50;10152065;28;20042;-70
2021/09/21 10:21:54;;;;;;;8.90;5.38;;;;;;;13.27;67.15;102686.75;10156836;28;20409;-70
2021/09/21 10:27:03;;;;;;;8.20;5.10;;;;;;;13.39;67.23;102669.91;10140323;28;20389;-69
2021/09/21 10:32:01;;;;;;;10.95;5.32;;;;;;;13.43;66.98;102668.25;10139008;28;20051;-69
2021/09/21 10:36:59;;;;;;;9.00;5.32;;;;;;;13.54;67.35;102669.78;10139982;28;20074;-69
2021/09/21 10:41:57;;;;;;;10.25;5.60;;;;;;;13.53;67.73;102670.06;10143759;28;20043;-70
2021/09/21 10:47:05;;;;;;;9.27;5.05;;;;;;;13.68;68.10;102673.47;10143465;28;20043;-70
2021/09/21 10:52:27;;;;;;;8.85;5.22;;;;;;;13.72;68.17;102668.22;10131614;28;20134;-70
2021/09/21 10:57:42;;;;;;;9.23;5.53;;;;;;;13.84;68.31;102667.81;10140896;28;20050;-71
2021/09/21 11:02:48;;;;;;;10.38;5.55;;;;;;;13.92;68.46;102669.09;10155105;28;20479;-70
2021/09/21 11:08:03;;;;;;;7.97;4.53;;;;;;;13.99;68.32;102653.88;10141045;28;20050;-70
2021/09/21 11:13:00;;;;;;;6.53;4.45;;;;;;;14.02;68.09;102653.31;10136774;28;20447;-71
2021/09/21 11:18:05;;;;;;;10.30;5.07;;;;;;;14.05;68.65;102647.19;10146534;28;20043;-70
2021/09/21 11:23:02;;;;;;;7.55;4.95;;;;;;;14.08;68.71;102641.09;10140099;28;20047;-70
2021/09/21 11:27:59;;;;;;;8.60;5.45;;;;;;;14.11;68.82;102645.22;10147747;28;20058;-70
2021/09/21 11:32:56;;;;;;;14.40;5.20;;;;;;;14.07;69.34;102633.16;10146358;28;20093;-70
2021/09/21 11:37:52;;;;;;;12.82;5.50;;;;;;;14.00;69.81;102638.22;10147910;28;20108;-70
2021/09/21 11:42:49;;;;;;;8.68;5.47;;;;;;;14.06;69.90;102640.59;10147637;28;20086;-70
2021/09/21 11:47:48;;;;;;;8.25;5.18;;;;;;;14.09;70.26;102626.25;10146050;28;20093;-70
2021/09/21 11:52:56;;;;;;;7.68;4.15;;;;;;;14.15;70.56;102623.44;10147427;28;20112;-70
2021/09/21 11:58:11;;;;;;;14.23;5.07;;;;;;;14.23;69.99;102620.03;10146027;28;20078;-70
2021/09/21 12:03:17;;;;;;;11.75;5.50;;;;;;;14.33;70.10;102619.88;10146701;28;20074;-70
2021/09/21 12:08:17;;;;;;;9.15;4.63;;;;;;;14.36;70.59;102619.28;10145509;28;20528;-70
2021/09/21 12:13:16;;;;;;;9.18;5.22;;;;;;;14.44;70.42;102615.88;10151541;28;20077;-70
2021/09/21 12:18:14;;;;;;;8.48;4.57;;;;;;;14.43;70.50;102622.47;10144311;28;20050;-70
2021/09/21 12:23:11;;;;;;;12.27;4.80;;;;;;;14.46;70.52;102610.88;10149963;28;20070;-71
2021/09/21 12:28:09;;;;;;;10.15;5.10;;;;;;;14.55;70.89;102616.56;10152236;28;20528;-70
2021/09/21 12:33:09;;;;;;;9.60;4.50;;;;;;;14.59;71.19;102611.28;10158925;28;20077;-71
2021/09/21 12:38:25;;;;;;;9.95;4.30;;;;;;;14.63;71.21;102612.31;10154573;28;20046;-71
2021/09/21 12:43:45;;;;;;;9.80;5.30;;;;;;;14.66;71.45;102601.50;10155762;28;20053;-70
2021/09/21 12:48:42;;;;;;;9.25;5.00;;;;;;;14.61;72.04;102603.53;10158094;28;20043;-70
2021/09/21 12:53:39;;;;;;;10.85;5.35;;;;;;;14.61;72.83;102592.53;10150565;28;20046;-70
2021/09/21 12:58:38;;;;;;;9.70;5.75;;;;;;;14.69;72.75;102594.56;10153289;28;20042;-70
2021/09/21 13:03:36;;;;;;;10.63;5.57;;;;;;;14.91;72.34;102592.00;10145315;28;20047;-71
2021/09/21 13:08:34;;;;;;;10.57;5.03;;;;;;;15.22;71.90;102596.16;10151499;28;20066;-69
2021/09/21 13:13:31;;;;;;;10.13;5.90;;;;;;;15.44;71.46;102592.72;10148618;28;20122;-70
2021/09/21 13:18:27;;;;;;;9.85;5.35;;;;;;;15.62;70.20;102572.50;10153531;28;20100;-70
2021/09/21 13:23:24;;;;;;;10.10;4.88;;;;;;;15.81;69.86;102582.66;10146168;28;20035;-71
2021/09/21 13:28:21;;;;;;;7.75;4.25;;;;;;;16.15;69.27;102585.75;10151798;28;20129;-70
2021/09/21 13:33:18;;;;;;;10.07;5.38;;;;;;;16.13;68.80;102592.69;10155697;28;20069;-70
2021/09/21 13:38:15;;;;;;;9.50;5.10;;;;;;;16.05;68.62;102583.19;10154440;28;20042;-70
2021/09/21 13:43:12;;;;;;;9.13;5.43;;;;;;;16.01;69.07;102595.16;10154156;28;20046;-70
2021/09/21 13:48:09;;;;;;;10.05;4.90;;;;;;;15.91;69.71;102579.66;10144338;28;20675;-71
2021/09/21 13:53:06;;;;;;;8.52;4.88;;;;;;;15.87;69.74;102581.41;10156014;28;20165;-70
2021/09/21 13:58:03;;;;;;;9.98;4.90;;;;;;;15.74;70.43;102581.09;10148438;28;20066;-70
2021/09/21 14:03:00;;;;;;;9.18;4.72;;;;;;;15.75;70.83;102560.66;10149967;28;20053;-70
2021/09/21 14:07:58;;;;;;;10.57;5.35;;;;;;;15.82;70.58;102570.47;10148261;28;20046;-70
2021/09/21 14:12:56;;;;;;;10.10;5.80;;;;;;;15.74;70.75;102564.56;10153622;28;20489;-70
2021/09/21 14:17:52;;;;;;;7.70;5.05;;;;;;;15.66;71.33;102559.72;10145486;28;20074;-70
2021/09/21 14:22:50;;;;;;;9.63;5.28;;;;;;;15.51;71.42;102560.06;10154326;28;20459;-70
2021/09/21 14:27:47;;;;;;;9.18;5.40;;;;;;;15.47;71.85;102572.81;10151157;28;20480;-70
2021/09/21 14:32:44;;;;;;;8.32;5.13;;;;;;;15.47;72.23;102553.50;10151205;28;20042;-70
2021/09/21 14:37:41;;;;;;;9.35;5.55;;;;;;;15.48;72.76;102544.09;10149808;28;20074;-70
2021/09/21 14:42:38;;;;;;;7.80;5.30;;;;;;;15.48;72.99;102549.63;10150735;28;20082;-71
2021/09/21 14:47:35;;;;;;;8.52;5.40;;;;;;;15.42;72.72;102546.16;10149108;28;20077;-70
2021/09/21 14:52:31;;;;;;;9.85;6.90;;;;;;;15.32;73.10;102541.69;10150141;28;20042;-70
2021/09/21 14:57:28;;;;;;;10.90;5.95;;;;;;;15.32;73.19;102530.66;10148253;28;20047;-70
2021/09/21 15:02:25;;;;;;;9.70;5.53;;;;;;;15.32;73.73;102530.66;10151445;28;20046;-71
2021/09/21 15:07:22;;;;;;;11.00;5.97;;;;;;;15.31;74.07;102540.03;10152079;28;20092;-70
2021/09/21 15:12:19;;;;;;;9.73;5.80;;;;;;;15.27;74.75;102533.53;10147949;28;20042;-70
2021/09/21 15:17:16;;;;;;;13.75;6.93;;;;;;;15.01;79.43;102540.63;10144895;28;20790;-70
2021/09/21 15:22:13;;;;;;;12.90;7.97;;;;;;;14.71;82.80;102542.78;10153932;28;20535;-69
2021/09/21 15:27:12;;;;;;;15.50;9.57;;;;;;;14.49;84.70;102529.66;10148033;28;20057;-70
2021/09/21 15:32:08;;;;;;;12.18;9.70;;;;;;;14.46;85.52;102525.56;10143459;28;20038;-70
2021/09/21 15:37:05;;;;;;;14.25;8.77;;;;;;;14.45;86.91;102534.91;10147494;28;20390;-69
2021/09/21 15:42:02;;;;;;;12.52;9.10;;;;;;;14.47;86.68;102527.19;10153112;28;20041;-69
2021/09/21 15:47:00;;;;;;;14.43;8.90;;;;;;;14.45;86.87;102523.91;10146969;28;20070;-69
2021/09/21 15:51:56;;;;;;;14.23;9.85;;;;;;;14.43;87.10;102522.59;10146771;28;20089;-69
2021/09/21 15:56:53;;;;;;;12.73;8.88;;;;;;;14.44;86.85;102530.53;10145637;28;20054;-69
2021/09/21 16:01:49;;;;;;;16.23;9.75;;;;;;;14.42;87.33;102535.53;10158759;28;20042;-69
2021/09/21 16:06:46;;;;;;;14.43;10.25;;;;;;;14.49;87.19;102551.66;10151553;28;20564;-70
2021/09/21 16:11:43;;;;;;;17.10;10.40;;;;;;;14.47;87.14;102538.19;10155340;28;20653;-69
2021/09/21 16:16:40;;;;;;;14.30;10.43;;;;;;;14.43;89.08;102544.59;10147904;28;20072;-69
2021/09/21 16:21:37;;;;;;;20.38;13.32;;;;;;;14.28;90.78;102542.91;10159438;28;20062;-69
2021/09/21 16:26:34;;;;;;;19.30;13.88;;;;;;;14.24;92.36;102547.38;10157872;28;20556;-69
2021/09/21 16:31:31;;;;;;;21.83;14.68;;;;;;;14.17;92.90;102555.19;10160170;28;20070;-69
2021/09/21 16:36:27;;;;;;;23.70;15.02;;;;;;;14.15;93.92;102546.41;10155481;28;20050;-70
2021/09/21 16:41:24;;;;;;;23.77;15.45;;;;;;;14.14;93.65;102555.78;10156874;28;20053;-69
2021/09/21 16:46:21;;;;;;;32.30;19.85;;;;;;;14.13;93.83;102567.88;10155020;28;20058;-69
2021/09/21 16:51:21;;;;;;;25.02;17.13;;;;;;;14.14;95.41;102555.78;10158871;28;20408;-69
2021/09/21 16:56:18;;;;;;;27.52;16.20;;;;;;;14.16;95.87;102561.81;10144866;28;20168;-70
2021/09/21 17:01:15;;;;;;;21.73;14.40;;;;;;;14.14;95.40;102575.03;10148114;28;20689;-69
2021/09/21 17:06:15;;;;;;;19.63;14.02;;;;;;;14.09;95.70;102565.75;10147429;28;20121;-69
2021/09/21 17:11:12;;;;;;;22.42;14.63;;;;;;;14.05;95.59;102572.13;10153037;28;20050;-69
2021/09/21 17:16:08;;;;;;;18.88;12.40;;;;;;;14.07;95.95;102573.47;10156901;28;20125;-69
2021/09/21 17:21:05;;;;;;;22.23;14.25;;;;;;;14.05;96.41;102564.69;10156647;28;20073;-69
2021/09/21 17:26:02;;;;;;;19.13;12.57;;;;;;;14.02;96.19;102568.03;10153660;28;20105;-69
2021/09/21 17:30:58;;;;;;;19.48;12.27;;;;;;;14.04;96.25;102579.56;10156741;28;20062;-69
2021/09/21 17:35:55;;;;;;;20.95;14.05;;;;;;;14.04;96.67;102578.72;10149238;28;20039;-70
2021/09/21 17:40:51;;;;;;;18.27;13.40;;;;;;;14.09;96.12;102575.94;10155102;28;20496;-70
2021/09/21 17:45:48;;;;;;;19.20;13.02;;;;;;;14.09;96.78;102586.94;10148123;28;20042;-68
2021/09/21 17:50:45;;;;;;;21.85;14.38;;;;;;;14.14;96.75;102588.78;10154236;28;20042;-69
2021/09/21 17:55:41;;;;;;;20.85;13.43;;;;;;;14.14;96.59;102595.09;10150288;28;20566;-70
2021/09/21 18:00:38;;;;;;;23.00;13.30;;;;;;;14.16;96.80;102581.88;10155038;28;20066;-70
2021/09/21 18:05:35;;;;;;;21.58;12.10;;;;;;;14.19;96.30;102580.47;10155208;28;20720;-70
2021/09/21 18:10:34;;;;;;;26.30;13.95;;;;;;;14.20;96.16;102582.09;10152178;28;20050;-70
2021/09/21 18:15:30;;;;;;;21.50;12.88;;;;;;;14.14;96.84;102600.59;10145097;28;20058;-69
2021/09/21 18:21:05;;;;;;;27.77;12.23;;;;;;;14.12;97.38;102602.03;10154024;28;20412;-70
2021/09/21 18:26:01;;;;;;;24.37;11.80;;;;;;;14.07;98.03;102611.16;10144264;28;20125;-70
2021/09/21 18:30:58;;;;;;;25.02;11.18;;;;;;;14.12;98.20;102624.03;10154744;28;20457;-70
2021/09/21 18:35:55;;;;;;;25.88;12.93;;;;;;;14.15;98.67;102629.75;10148737;28;20061;-70
2021/09/21 18:40:54;;;;;;;28.63;11.27;;;;;;;14.08;98.15;102630.09;10153971;28;20125;-69
2021/09/21 18:45:51;;;;;;;32.35;12.15;;;;;;;14.08;98.40;102624.59;10149137;28;20519;-70
2021/09/21 18:50:49;;;;;;;28.00;11.32;;;;;;;14.08;98.68;102624.59;10153038;28;20493;-70
2021/09/21 18:55:47;;;;;;;22.63;9.52;;;;;;;14.07;98.03;102639.47;10147789;28;20042;-70
2021/09/21 19:00:44;;;;;;;25.27;9.63;;;;;;;14.08;98.58;102635.59;10141776;28;20042;-70
2021/09/21 19:05:41;;;;;;;25.63;9.38;;;;;;;14.16;98.57;102638.84;10153185;28;20081;-70
2021/09/21 19:10:37;;;;;;;29.58;10.38;;;;;;;14.09;98.32;102642.75;10151186;28;20070;-70
2021/09/21 19:15:34;;;;;;;33.50;10.18;;;;;;;14.05;98.58;102638.13;10149056;28;20097;-70
2021/09/21 19:20:30;;;;;;;27.05;11.02;;;;;;;14.05;98.53;102636.19;10152106;28;20042;-70
2021/09/21 19:25:27;;;;;;;28.58;10.10;;;;;;;14.03;98.40;102643.94;10146526;28;20054;-70
2021/09/21 19:30:28;;;;;;;32.33;9.32;;;;;;;13.95;98.38;102630.00;10152546;28;20046;-70
2021/09/21 19:35:25;;;;;;;27.55;7.90;;;;;;;13.86;98.38;102632.59;10153999;28;20081;-70
2021/09/21 19:40:24;;;;;;;26.70;6.90;;;;;;;13.81;97.69;102641.72;10161105;28;20077;-70
2021/09/21 19:45:22;;;;;;;27.98;5.53;;;;;;;13.72;97.38;102640.72;10152297;28;20091;-70
2021/09/21 19:50:23;;;;;;;23.38;5.45;;;;;;;13.64;96.53;102642.19;10156964;28;20077;-69
2021/09/21 19:55:21;;;;;;;22.27;4.28;;;;;;;13.61;96.36;102640.03;10148056;28;20101;-70
2021/09/21 20:00:19;;;;;;;31.92;5.65;;;;;;;13.56;95.90;102634.59;10160727;28;20129;-70
2021/09/21 20:05:16;;;;;;;29.15;5.25;;;;;;;13.50;95.30;102635.75;10153425;28;20038;-70
2021/09/21 20:10:15;;;;;;;34.15;10.90;;;;;;;13.44;95.51;102653.41;10159849;28;20707;-70
2021/09/21 20:15:13;;;;;;;25.67;5.30;;;;;;;13.37;94.40;102641.94;10148958;28;20477;-69
2021/09/21 20:20:11;;;;;;;31.02;4.40;;;;;;;13.32;94.79;102650.22;10159554;28;20208;-70
2021/09/21 20:25:11;;;;;;;31.38;5.70;;;;;;;13.26;94.66;102658.47;10147291;28;20109;-70
2021/09/21 20:30:12;;;;;;;23.33;5.32;;;;;;;13.22;94.74;102654.66;10158135;28;20457;-70
2021/09/21 20:35:22;;;;;;;30.90;6.75;;;;;;;13.18;94.35;102652.78;10156692;28;20077;-70
2021/09/21 20:40:19;;;;;;;29.45;6.93;;;;;;;13.14;93.73;102649.81;10158627;28;20050;-70
2021/09/21 20:45:16;;;;;;;22.83;4.60;;;;;;;13.10;93.76;102665.22;10156606;28;20496;-70
2021/09/21 20:50:12;;;;;;;24.60;4.82;;;;;;;13.10;93.77;102665.22;10155923;28;20050;-70
2021/09/21 20:55:09;;;;;;;24.60;4.93;;;;;;;13.07;93.15;102652.06;10153976;28;20100;-70
2021/09/21 21:00:06;;;;;;;26.23;5.07;;;;;;;13.03;92.96;102664.72;10158061;28;20412;-70
2021/09/21 21:05:03;;;;;;;27.60;4.53;;;;;;;12.98;92.49;102662.84;10160822;28;20042;-70
2021/09/21 21:10:00;;;;;;;24.45;5.03;;;;;;;12.96;93.00;102664.22;10154004;28;20452;-70
2021/09/21 21:14:56;;;;;;;26.75;3.92;;;;;;;12.94;93.20;102666.44;10151880;28;20125;-70
2021/09/21 21:19:53;;;;;;;26.05;3.92;;;;;;;12.95;92.47;102668.06;10157291;28;20042;-70
2021/09/21 21:24:51;;;;;;;30.85;4.18;;;;;;;12.83;92.57;102666.53;10153088;28;20058;-70
2021/09/21 21:29:49;;;;;;;30.55;5.50;;;;;;;12.84;92.73;102657.16;10156791;28;20516;-70
2021/09/21 21:34:45;;;;;;;21.73;3.85;;;;;;;12.80;92.63;102661.59;10153711;28;20038;-70
2021/09/21 21:39:42;;;;;;;23.98;4.65;;;;;;;12.83;92.61;102672.03;10151756;28;20097;-70
2021/09/21 21:44:38;;;;;;;24.38;4.63;;;;;;;12.74;92.21;102662.75;10155258;28;20038;-70
2021/09/21 21:49:35;;;;;;;37.53;5.88;;;;;;;12.71;92.33;102674.28;10155267;28;20081;-71
2021/09/21 21:54:31;;;;;;;24.67;4.57;;;;;;;12.61;91.95;102666.13;10156977;28;20046;-70
2021/09/21 21:59:28;;;;;;;24.73;4.35;;;;;;;12.63;92.38;102677.63;10153120;28;20124;-70
2021/09/21 22:04:26;;;;;;;26.67;4.30;;;;;;;12.59;91.93;102687.53;10155979;28;20105;-70
2021/09/21 22:09:22;;;;;;;25.35;5.68;;;;;;;12.58;91.83;102677.69;10150615;28;20039;-70
2021/09/21 22:14:19;;;;;;;35.42;5.55;;;;;;;12.55;91.91;102687.25;10153581;28;20042;-70
2021/09/21 22:19:15;;;;;;;24.05;4.57;;;;;;;12.52;91.86;102687.84;10154018;28;20050;-70
2021/09/21 22:24:12;;;;;;;22.25;4.25;;;;;;;12.41;91.33;102687.06;10151290;28;20042;-70
2021/09/21 22:29:08;;;;;;;24.65;4.22;;;;;;;12.49;91.13;102687.59;10154087;28;20054;-70
2021/09/21 22:34:05;;;;;;;29.10;4.97;;;;;;;12.43;91.34;102690.34;10153990;28;20038;-70
2021/09/21 22:39:06;;;;;;;25.13;5.50;;;;;;;12.42;91.66;102698.88;10154197;28;20046;-70
2021/09/21 22:44:04;;;;;;;25.80;4.57;;;;;;;12.34;91.63;102703.00;10152313;28;20089;-70
2021/09/21 22:49:01;;;;;;;21.45;3.58;;;;;;;12.40;91.68;102693.66;10154082;28;20053;-74